Rochester, NY

5:41 PM EST on December 17, 2014 (GMT -0500)
Park Avenue | Change Station
CLOSE
Current Station
Personal Weather Station
Location: Rochester, NY
Elevation: 463 ft
Nearby Weather Stations

Elev 463 ft 43.15 °N, 77.56 °W | Updated 12 seconds ago

Snow
Snow
34.3 °F
Feels Like 34 °F
N
2.2
Wind Variable Wind from North
Gusts 4.0 mph

Today
High -- | Low -- °F
--% Chance of Precip.
Yesterday
High -- | Low -- °F
Precip. -- in
7:36 AM 4:36 PM
Waning Crescent, 19% visible
Pressure 29.93 in
Visibility 3.0 miles
Clouds Mostly Cloudy 1500 ft
Overcast 2500 ft
Windchill 34 °F
Dew Point 31 °F
Humidity 87%
Rainfall 0.04 in
Snow Depth Not available.
UV 0.0 out of 12
Pollen .10 out of 12
Air Quality Not available.
Flu Activity Not available.
METAR KROC 172154Z 27017G23KT 3SM -SN BR BKN015 OVC025 01/M01 A2990 RMK AO2 PK WND 27031/2059 SFC VIS 3 SLP134 P0000 T00111011

More Conditions Fewer Conditions

Pressure 29.93 in
Visibility 3.0 miles
Clouds Mostly Cloudy 1500 ft
Overcast 2500 ft
Windchill 34 °F
Dew Point 31 °F
Humidity 87%
Rainfall 0.04 in
Snow Depth Not available.
UV 0.0 out of 12
Pollen .10 out of 12
Air Quality Not available.
Flu Activity Not available.
METAR KROC 172154Z 27017G23KT 3SM -SN BR BKN015 OVC025 01/M01 A2990 RMK AO2 PK WND 27031/2059 SFC VIS 3 SLP134 P0000 T00111011

More Conditions Fewer Conditions

10-Day Weather Forecast

Almanac

Astronomy

Dec. 17, 2014 Rise Set
Actual Time
Civil Twilight
Nautical Twilight
Astronomical Twilight
Moon
Length of Visible Light
Length of Day
Tomorrow will be .
, % of the Moon is Illuminated

Today's Extremes

State Highs State Lows

Community

WunderPhotos

Upload Photos

1,778,813 photos uploaded!

WunderBlogs® & News

Nearby

Air Quality

  Air Quality AQ Index Pollutant
Not available.

Snow Depth

Station Depth Elevation

Earthquake Activity

City Distance Mag. Time & Date
Minimum magnitude displayed is 2.5.

Coastal Water Temperatures

Place Temperature

Nearby Weather Stations